Time;durP1;ratioP1;P1;durP2;ratioP2;P2;SDS_P1;SDS_P2;PMS_P1;PMS_P2;Temp;Humidity;BMP_temperature;BMP_pressure;BME280_temperature;BME280_humidity;BME280_pressure;Samples;Min_cycle;Max_cycle;Signal;HPM_P1;HPM_P2
2023/01/17 00:02:14;;;;;;;;;;;;;;;5.82;72.96;97530.28;5084831;28;4380;-78
2023/01/17 00:10:09;;;;;;;;;;;;;;;5.87;72.80;97518.84;5065575;28;4673;-78
2023/01/17 00:12:36;;;;;;;;;;;;;;;5.88;72.49;97518.59;5085327;28;4459;-78
2023/01/17 00:15:02;;;;;;;;;;;;;;;5.83;72.75;97513.22;5085363;28;4762;-78
2023/01/17 00:17:29;;;;;;;;;;;;;;;5.36;73.10;97435.91;5081237;28;4738;-78
2023/01/17 01:34:21;;;;;;;;;;;;;;;5.67;73.65;97458.16;5063091;28;4513;-78
2023/01/17 01:36:48;;;;;;;;;;;;;;;5.71;73.59;97461.94;5080120;28;3982;-77
2023/01/17 01:39:14;;;;;;;;;;;;;;;5.74;73.36;97456.06;5071854;28;4862;-77
2023/01/17 01:41:41;;;;;;;;;;;;;;;5.67;73.60;97450.94;5075851;28;4418;-77
2023/01/17 01:44:07;;;;;;;;;;;;;;;5.69;73.64;97446.16;5083036;28;4538;-77
2023/01/17 01:46:34;;;;;;;;;;;;;;;5.72;73.43;97450.16;5066047;28;4867;-77
2023/01/17 01:49:00;;;;;;;;;;;;;;;5.64;73.86;97448.00;5079089;28;4650;-77
2023/01/17 01:51:27;;;;;;;;;;;;;;;5.63;73.73;97441.88;5083343;28;4517;-77
2023/01/17 01:53:53;;;;;;;;;;;;;;;5.59;74.19;97439.97;5079736;28;4442;-77
2023/01/17 01:56:22;;;;;;;;;;;;;;;5.58;73.98;97430.38;5061937;28;4388;-77
2023/01/17 01:58:48;;;;;;;;;;;;;;;5.77;73.48;97436.84;5082373;28;4246;-77
2023/01/17 02:01:14;;;;;;;;;;;;;;;5.68;73.73;97433.88;5065672;28;4442;-77
2023/01/17 02:03:41;;;;;;;;;;;;;;;5.72;73.33;97431.47;5072515;28;4763;-77
2023/01/17 02:06:08;;;;;;;;;;;;;;;5.62;74.02;97426.91;5081339;28;4830;-77
2023/01/17 02:08:34;;;;;;;;;;;;;;;5.66;73.45;97430.66;5078259;28;4208;-77
2023/01/17 02:11:01;;;;;;;;;;;;;;;5.56;74.01;97421.81;5083264;28;4753;-77
2023/01/17 02:13:28;;;;;;;;;;;;;;;5.62;73.90;97428.78;5081250;28;4723;-77
2023/01/17 02:15:54;;;;;;;;;;;;;;;5.66;73.54;97421.84;5086375;28;4859;-77
2023/01/17 02:18:21;;;;;;;;;;;;;;;5.59;74.23;97419.44;5080099;28;4763;-77
2023/01/17 02:20:47;;;;;;;;;;;;;;;5.63;73.68;97412.50;5079630;28;4062;-77
2023/01/17 02:23:14;;;;;;;;;;;;;;;5.67;73.61;97408.22;5067835;28;4672;-77
2023/01/17 02:25:40;;;;;;;;;;;;;;;5.66;73.90;97409.28;5062339;28;3974;-77
2023/01/17 02:28:07;;;;;;;;;;;;;;;5.66;73.74;97405.81;5078460;28;4690;-77
2023/01/17 02:30:33;;;;;;;;;;;;;;;5.64;73.67;97400.75;5065272;28;4570;-77
2023/01/17 02:33:00;;;;;;;;;;;;;;;5.72;73.68;97407.44;5066246;28;4856;-77
2023/01/17 02:35:27;;;;;;;;;;;;;;;5.64;73.93;97399.94;5078941;28;4788;-77
2023/01/17 02:37:53;;;;;;;;;;;;;;;5.67;73.63;97400.22;5063857;28;4199;-77
2023/01/17 02:40:20;;;;;;;;;;;;;;;5.67;73.50;97391.41;5080177;28;4714;-77
2023/01/17 02:42:46;;;;;;;;;;;;;;;5.63;74.08;97404.50;5079031;28;4474;-77
2023/01/17 02:45:13;;;;;;;;;;;;;;;5.80;73.09;97395.44;5082057;28;4745;-77
2023/01/17 02:47:39;;;;;;;;;;;;;;;5.64;73.61;97391.94;5087522;28;4891;-76
2023/01/17 02:50:06;;;;;;;;;;;;;;;5.70;73.55;97397.00;5084454;28;4741;-77
2023/01/17 02:52:32;;;;;;;;;;;;;;;5.69;73.54;97392.75;5084615;28;4180;-77
2023/01/17 02:55:00;;;;;;;;;;;;;;;5.70;73.69;97393.53;5082015;28;4502;-76
2023/01/17 02:57:26;;;;;;;;;;;;;;;5.81;73.32;97399.72;5082803;28;4265;-76
2023/01/17 02:59:53;;;;;;;;;;;;;;;5.76;73.28;97399.69;5065091;28;4702;-77
2023/01/17 03:02:19;;;;;;;;;;;;;;;5.69;73.47;97391.94;5085503;28;4833;-76
2023/01/17 03:04:46;;;;;;;;;;;;;;;5.78;73.47;97393.03;5064801;28;4447;-77
2023/01/17 03:07:15;;;;;;;;;;;;;;;5.77;73.34;97391.44;5067672;28;5303;-77
2023/01/17 03:09:42;;;;;;;;;;;;;;;5.85;73.12;97387.41;5081679;28;4613;-77
2023/01/17 03:12:09;;;;;;;;;;;;;;;5.92;72.87;97390.66;5067470;28;4831;-76
2023/01/17 03:14:35;;;;;;;;;;;;;;;5.85;72.99;97390.91;5081597;28;4635;-76
2023/01/17 03:17:02;;;;;;;;;;;;;;;5.77;73.46;97383.41;5085086;28;4792;-76
2023/01/17 03:19:28;;;;;;;;;;;;;;;5.74;73.22;97381.28;5088993;28;4229;-76
2023/01/17 03:21:55;;;;;;;;;;;;;;;5.72;73.46;97383.41;5081696;28;4364;-77
2023/01/17 03:24:21;;;;;;;;;;;;;;;5.82;73.22;97374.59;5077865;28;4801;-77
2023/01/17 03:26:48;;;;;;;;;;;;;;;5.76;73.31;97371.13;5081876;28;4029;-76
2023/01/17 03:29:15;;;;;;;;;;;;;;;5.80;73.21;97366.06;5082650;28;4201;-77
2023/01/17 03:31:41;;;;;;;;;;;;;;;5.82;73.31;97359.38;5069315;28;4782;-77
2023/01/17 03:34:08;;;;;;;;;;;;;;;5.85;73.13;97360.72;5087078;28;4717;-76
2023/01/17 03:36:34;;;;;;;;;;;;;;;5.77;73.31;97356.72;5067264;28;4676;-76
2023/01/17 03:39:01;;;;;;;;;;;;;;;5.81;73.29;97357.78;5069911;28;3941;-76
2023/01/17 03:41:28;;;;;;;;;;;;;;;5.83;73.22;97352.97;5087157;28;4713;-77
2023/01/17 03:43:54;;;;;;;;;;;;;;;5.76;73.40;97357.75;5073450;28;4402;-77
2023/01/17 03:46:21;;;;;;;;;;;;;;;5.83;73.10;97358.31;5082263;28;4138;-77
2023/01/17 03:48:47;;;;;;;;;;;;;;;5.82;73.07;97350.56;5085768;28;4222;-76
2023/01/17 03:51:14;;;;;;;;;;;;;;;5.86;73.02;97352.44;5085310;28;4396;-77
2023/01/17 03:53:40;;;;;;;;;;;;;;;5.85;72.98;97356.19;5080980;28;4839;-77
2023/01/17 03:56:07;;;;;;;;;;;;;;;5.76;73.39;97348.97;5081771;28;4713;-76
2023/01/17 03:58:33;;;;;;;;;;;;;;;5.89;73.06;97356.44;5083648;28;4492;-77
2023/01/17 04:01:00;;;;;;;;;;;;;;;5.85;73.00;97345.50;5064628;28;4216;-76
2023/01/17 04:03:27;;;;;;;;;;;;;;;5.78;73.31;97338.81;5080529;28;4213;-77
2023/01/17 04:05:53;;;;;;;;;;;;;;;5.82;73.17;97343.34;5065659;28;4677;-77
2023/01/17 04:08:20;;;;;;;;;;;;;;;5.73;73.44;97344.94;5080729;28;4437;-76
2023/01/17 04:10:46;;;;;;;;;;;;;;;5.81;73.11;97338.28;5081439;28;4095;-77
2023/01/17 04:13:34;;;;;;;;;;;;;;;5.89;72.93;97343.09;5081893;28;4662;-76
2023/01/17 04:16:26;;;;;;;;;;;;;;;5.73;73.71;97334.25;5085628;28;4221;-77
2023/01/17 04:19:18;;;;;;;;;;;;;;;5.84;73.26;97329.75;5084049;28;4733;-77
2023/01/17 04:22:10;;;;;;;;;;;;;;;5.78;73.50;97322.78;5083203;28;4382;-77
2023/01/17 04:24:36;;;;;;;;;;;;;;;5.78;73.61;97320.91;5084043;28;4737;-77
2023/01/17 04:27:03;;;;;;;;;;;;;;;5.77;73.42;97322.00;5079688;28;4639;-76
2023/01/17 04:29:29;;;;;;;;;;;;;;;5.78;73.50;97320.13;5080776;28;4680;-77
2023/01/17 04:31:56;;;;;;;;;;;;;;;5.79;73.40;97316.38;5064530;28;4693;-77
2023/01/17 04:34:22;;;;;;;;;;;;;;;5.88;73.26;97317.44;5086545;28;4789;-77
2023/01/17 04:36:49;;;;;;;;;;;;;;;5.80;73.23;97309.97;5083237;28;4794;-77
2023/01/17 04:39:15;;;;;;;;;;;;;;;5.78;73.29;97328.13;5081871;28;4216;-77
2023/01/17 04:41:42;;;;;;;;;;;;;;;5.78;73.32;97317.47;5078550;28;4112;-77
2023/01/17 04:44:09;;;;;;;;;;;;;;;5.68;73.78;97316.38;5080186;28;4263;-77
2023/01/17 04:46:35;;;;;;;;;;;;;;;5.75;73.55;97315.31;5062422;28;4700;-77
2023/01/17 04:49:02;;;;;;;;;;;;;;;5.68;73.80;97316.38;5061009;28;4147;-76
2023/01/17 04:51:28;;;;;;;;;;;;;;;5.79;73.33;97303.81;5067198;28;4432;-77
2023/01/17 04:53:55;;;;;;;;;;;;;;;5.73;73.57;97306.75;5080770;28;4476;-77
2023/01/17 04:56:22;;;;;;;;;;;;;;;5.66;73.81;97305.16;5081096;28;4359;-77
2023/01/17 04:58:48;;;;;;;;;;;;;;;5.75;73.46;97302.75;5062468;28;4732;-77
2023/01/17 05:01:15;;;;;;;;;;;;;;;5.71;73.82;97312.38;5083555;28;4803;-77
2023/01/17 05:03:41;;;;;;;;;;;;;;;5.75;73.74;97312.66;5081704;28;4661;-77
2023/01/17 05:06:08;;;;;;;;;;;;;;;5.68;73.76;97308.38;5082347;28;4568;-77
2023/01/17 05:08:34;;;;;;;;;;;;;;;5.69;74.08;97311.84;5070609;28;4754;-77
2023/01/17 05:11:01;;;;;;;;;;;;;;;5.64;74.18;97309.97;5062181;28;4678;-77
2023/01/17 05:13:27;;;;;;;;;;;;;;;5.73;73.48;97320.91;5085647;28;4559;-77
2023/01/17 05:15:54;;;;;;;;;;;;;;;5.65;73.84;97319.59;5085020;28;4752;-77
2023/01/17 05:18:20;;;;;;;;;;;;;;;5.70;73.59;97322.25;5080448;28;4452;-76
2023/01/17 05:20:49;;;;;;;;;;;;;;;5.65;74.14;97327.59;5063463;28;4357;-77
2023/01/17 05:23:16;;;;;;;;;;;;;;;5.73;73.73;97326.25;5089586;28;4669;-77
2023/01/17 05:25:45;;;;;;;;;;;;;;;5.66;74.21;97317.72;5066493;28;4338;-77
2023/01/17 05:28:13;;;;;;;;;;;;;;;5.72;73.61;97319.31;5081526;28;4413;-77
2023/01/17 05:30:39;;;;;;;;;;;;;;;5.62;74.09;97316.66;5080132;28;4106;-77
2023/01/17 05:33:08;;;;;;;;;;;;;;;5.58;74.21;97313.69;5079934;28;4517;-77
2023/01/17 05:35:36;;;;;;;;;;;;;;;5.63;74.24;97323.59;5080589;28;4554;-77
2023/01/17 05:38:03;;;;;;;;;;;;;;;5.67;74.01;97319.31;5085022;28;4734;-77
2023/01/17 05:40:29;;;;;;;;;;;;;;;5.51;74.46;97321.19;5064711;28;4513;-77
2023/01/17 05:42:57;;;;;;;;;;;;;;;5.65;73.96;97322.25;5081370;28;4724;-77
2023/01/17 05:45:23;;;;;;;;;;;;;;;5.56;74.41;97323.88;5059936;28;4786;-77
2023/01/17 05:47:51;;;;;;;;;;;;;;;5.60;74.33;97316.13;5063312;28;4662;-77
2023/01/17 05:50:17;;;;;;;;;;;;;;;5.56;74.29;97326.53;5079204;28;4546;-77
2023/01/17 05:52:44;;;;;;;;;;;;;;;5.68;73.63;97320.94;5083687;28;4968;-77
2023/01/17 05:55:11;;;;;;;;;;;;;;;5.51;74.18;97320.38;5062666;28;4267;-77
2023/01/17 05:57:37;;;;;;;;;;;;;;;5.52;74.20;97319.31;5081505;28;4685;-77
2023/01/17 06:00:04;;;;;;;;;;;;;;;5.58;74.22;97318.25;5067315;28;4467;-77
2023/01/17 06:02:32;;;;;;;;;;;;;;;5.52;74.48;97320.09;5065081;28;4130;-77
2023/01/17 06:04:59;;;;;;;;;;;;;;;5.68;73.73;97321.72;5064845;28;4081;-77
2023/01/17 06:07:27;;;;;;;;;;;;;;;5.63;73.89;97323.59;5080632;28;4204;-77
2023/01/17 06:09:53;;;;;;;;;;;;;;;5.64;74.00;97314.50;5080764;28;4667;-77
2023/01/17 06:12:21;;;;;;;;;;;;;;;5.63;73.90;97318.25;5061158;28;4753;-77
2023/01/17 06:14:49;;;;;;;;;;;;;;;5.56;74.12;97315.84;5083357;28;4293;-77
2023/01/17 06:17:17;;;;;;;;;;;;;;;5.70;73.70;97311.56;5078233;28;4121;-77
2023/01/17 06:19:44;;;;;;;;;;;;;;;5.55;74.28;97311.56;5083440;28;4553;-77
2023/01/17 06:22:11;;;;;;;;;;;;;;;5.68;73.77;97316.38;5085905;28;4030;-77
2023/01/17 06:24:38;;;;;;;;;;;;;;;5.63;73.95;97319.03;5092710;28;5074;-77
2023/01/17 06:27:04;;;;;;;;;;;;;;;5.65;73.95;97316.13;5085115;28;4100;-77
2023/01/17 06:29:31;;;;;;;;;;;;;;;5.65;73.86;97316.13;5068677;28;4421;-77
2023/01/17 06:31:57;;;;;;;;;;;;;;;5.63;73.99;97323.59;5083315;28;4372;-77
2023/01/17 06:34:25;;;;;;;;;;;;;;;5.75;73.62;97329.47;5083103;28;4713;-77
2023/01/17 06:36:52;;;;;;;;;;;;;;;5.76;73.64;97340.94;5084396;28;4449;-76
2023/01/17 06:39:19;;;;;;;;;;;;;;;5.65;73.82;97338.28;5088998;28;4115;-77
2023/01/17 06:41:47;;;;;;;;;;;;;;;5.70;73.65;97340.13;5081422;28;3985;-77
2023/01/17 06:44:13;;;;;;;;;;;;;;;5.75;73.80;97340.16;5069663;28;4141;-77
2023/01/17 06:46:40;;;;;;;;;;;;;;;5.69;73.79;97342.00;5082658;28;4600;-77
2023/01/17 06:49:07;;;;;;;;;;;;;;;5.80;73.45;97342.03;5071500;28;4171;-77
2023/01/17 06:51:33;;;;;;;;;;;;;;;5.80;73.22;97350.84;5085247;28;4283;-77
2023/01/17 06:54:00;;;;;;;;;;;;;;;5.73;73.76;97346.81;5067039;28;4588;-77
2023/01/17 06:56:27;;;;;;;;;;;;;;;5.76;73.65;97348.97;5086230;28;4517;-77
2023/01/17 06:58:54;;;;;;;;;;;;;;;5.75;73.53;97347.38;5081011;28;4126;-77
2023/01/17 07:01:20;;;;;;;;;;;;;;;5.77;73.56;97345.25;5091854;28;4728;-77
2023/01/17 07:03:47;;;;;;;;;;;;;;;5.95;72.86;97355.41;5073213;28;4687;-77
2023/01/17 07:06:13;;;;;;;;;;;;;;;5.91;73.07;97349.78;5084738;28;4787;-77
2023/01/17 07:08:40;;;;;;;;;;;;;;;5.88;73.07;97346.81;5094427;28;4851;-77
2023/01/17 07:11:07;;;;;;;;;;;;;;;5.87;73.04;97354.03;5092634;28;4610;-77
2023/01/17 07:13:33;;;;;;;;;;;;;;;5.82;73.09;97351.34;5092747;28;4847;-77
2023/01/17 07:16:01;;;;;;;;;;;;;;;5.75;73.53;97345.50;5087552;28;4901;-77
2023/01/17 07:18:28;;;;;;;;;;;;;;;5.89;72.96;97349.25;5085617;28;4101;-77
2023/01/17 07:20:55;;;;;;;;;;;;;;;5.86;73.28;97351.66;5069946;28;4163;-77
2023/01/17 07:23:21;;;;;;;;;;;;;;;5.87;73.08;97362.06;5088116;28;4660;-78
2023/01/17 07:25:48;;;;;;;;;;;;;;;5.90;72.91;97353.50;5084807;28;4397;-77
2023/01/17 07:28:15;;;;;;;;;;;;;;;5.92;73.09;97350.56;5084536;28;4189;-78
2023/01/17 07:30:41;;;;;;;;;;;;;;;5.94;72.77;97353.00;5066034;28;4257;-77
2023/01/17 07:33:08;;;;;;;;;;;;;;;5.89;72.97;97348.44;5063063;28;4496;-77
2023/01/17 07:35:35;;;;;;;;;;;;;;;5.82;73.17;97356.69;5065524;28;4818;-77
2023/01/17 07:38:02;;;;;;;;;;;;;;;5.88;73.15;97349.50;5062725;28;4186;-77
2023/01/17 07:40:28;;;;;;;;;;;;;;;5.85;73.21;97352.69;5066370;28;4506;-77
2023/01/17 07:42:55;;;;;;;;;;;;;;;5.92;73.03;97358.59;5066046;28;4731;-77
2023/01/17 07:45:23;;;;;;;;;;;;;;;5.81;73.44;97362.31;5061153;28;4943;-77
2023/01/17 07:47:50;;;;;;;;;;;;;;;5.95;72.97;97358.09;5062009;28;4731;-77
2023/01/17 07:50:17;;;;;;;;;;;;;;;5.95;72.83;97358.09;5060742;28;4681;-77
2023/01/17 07:52:44;;;;;;;;;;;;;;;5.88;73.17;97355.66;5061364;28;4732;-77
2023/01/17 07:55:10;;;;;;;;;;;;;;;5.94;72.87;97356.47;5064171;28;4145;-77
2023/01/17 07:57:38;;;;;;;;;;;;;;;5.99;72.68;97364.47;5064395;28;4612;-77
2023/01/17 08:00:05;;;;;;;;;;;;;;;5.97;72.86;97352.47;5059946;28;4734;-77
2023/01/17 08:02:31;;;;;;;;;;;;;;;5.96;72.91;97354.34;5061168;28;4699;-77
2023/01/17 08:04:59;;;;;;;;;;;;;;;5.95;72.98;97362.63;5056607;28;4647;-77
2023/01/17 08:07:26;;;;;;;;;;;;;;;5.98;72.68;97365.56;5047291;28;4130;-77
2023/01/17 08:09:53;;;;;;;;;;;;;;;5.88;73.22;97363.66;5050297;28;4756;-77
2023/01/17 08:12:20;;;;;;;;;;;;;;;5.96;73.11;97369.56;5047478;28;4831;-77
2023/01/17 08:14:47;;;;;;;;;;;;;;;5.93;72.90;97365.56;5047247;28;4391;-77
2023/01/17 08:17:13;;;;;;;;;;;;;;;5.93;72.96;97365.56;5048068;28;4728;-77
2023/01/17 08:19:40;;;;;;;;;;;;;;;5.87;73.13;97363.94;5053767;28;4205;-77
2023/01/17 08:22:08;;;;;;;;;;;;;;;5.92;73.41;97366.59;5049741;28;4051;-77
2023/01/17 08:24:36;;;;;;;;;;;;;;;6.00;72.68;97374.13;5053668;28;4499;-77
2023/01/17 08:27:03;;;;;;;;;;;;;;;5.92;72.82;97375.41;5056400;28;4191;-77
2023/01/17 08:29:30;;;;;;;;;;;;;;;5.86;73.39;97373.81;5053296;28;4412;-77
2023/01/17 08:31:57;;;;;;;;;;;;;;;5.90;73.29;97371.41;5074334;28;4993;-77
2023/01/17 08:34:24;;;;;;;;;;;;;;;5.95;72.96;97379.47;5060553;28;4901;-78
2023/01/17 08:36:52;;;;;;;;;;;;;;;5.92;73.19;97369.28;5056158;28;4782;-77
2023/01/17 08:39:19;;;;;;;;;;;;;;;5.93;73.28;97376.25;5059213;28;4273;-77
2023/01/17 08:41:47;;;;;;;;;;;;;;;5.97;73.15;97379.19;5071718;28;4189;-77
2023/01/17 08:44:14;;;;;;;;;;;;;;;5.90;73.34;97380.22;5060110;28;4792;-77
2023/01/17 08:46:42;;;;;;;;;;;;;;;5.96;72.74;97391.72;5078504;28;5131;-77
2023/01/17 08:49:11;;;;;;;;;;;;;;;5.89;73.08;97383.16;5073327;28;4877;-77
2023/01/17 08:51:37;;;;;;;;;;;;;;;5.83;73.28;97386.91;5072393;28;4784;-77
2023/01/17 08:54:04;;;;;;;;;;;;;;;5.87;73.29;97387.97;5080597;28;4263;-77
2023/01/17 08:56:30;;;;;;;;;;;;;;;5.84;73.44;97397.31;5072285;28;4702;-77
2023/01/17 08:58:57;;;;;;;;;;;;;;;5.83;73.34;97393.03;5075160;28;4784;-77
2023/01/17 09:01:25;;;;;;;;;;;;;;;5.83;73.38;97400.25;5060267;28;4833;-77
2023/01/17 09:03:51;;;;;;;;;;;;;;;5.81;73.48;97391.69;5085735;28;4493;-77
2023/01/17 09:06:19;;;;;;;;;;;;;;;5.84;73.43;97393.84;5089394;28;4835;-77
2023/01/17 09:08:46;;;;;;;;;;;;;;;5.83;73.42;97405.59;5075923;28;4916;-77
2023/01/17 09:11:13;;;;;;;;;;;;;;;5.78;73.52;97403.72;5080076;28;4328;-77
2023/01/17 09:13:39;;;;;;;;;;;;;;;5.80;73.51;97406.13;5061254;28;4329;-77
2023/01/17 09:16:06;;;;;;;;;;;;;;;5.82;73.52;97404.78;5061915;28;4779;-77
2023/01/17 09:18:34;;;;;;;;;;;;;;;5.77;73.87;97404.78;5079042;28;4941;-77
2023/01/17 09:21:01;;;;;;;;;;;;;;;5.75;73.70;97414.91;5080613;28;4900;-77
2023/01/17 09:23:28;;;;;;;;;;;;;;;5.79;73.71;97415.97;5076799;28;4539;-77
2023/01/17 09:25:54;;;;;;;;;;;;;;;5.81;73.51;97413.84;5060153;28;4663;-77
2023/01/17 09:28:21;;;;;;;;;;;;;;;5.77;73.82;97423.47;5060291;28;4715;-77
2023/01/17 09:30:47;;;;;;;;;;;;;;;5.78;73.56;97422.41;5077610;28;4295;-77
2023/01/17 09:33:14;;;;;;;;;;;;;;;5.74;73.81;97426.69;5060992;28;4828;-77
2023/01/17 09:35:41;;;;;;;;;;;;;;;5.77;73.74;97430.69;5075567;28;4796;-77
2023/01/17 09:38:08;;;;;;;;;;;;;;;5.69;73.74;97424.78;5073632;28;4852;-77
2023/01/17 09:40:35;;;;;;;;;;;;;;;5.59;74.37;97423.94;5067264;28;4014;-77
2023/01/17 09:43:02;;;;;;;;;;;;;;;5.76;73.76;97421.06;5062611;28;4316;-77
2023/01/17 09:45:29;;;;;;;;;;;;;;;5.63;74.37;97422.38;5059653;28;4087;-77
2023/01/17 09:47:55;;;;;;;;;;;;;;;5.69;74.15;97432.81;5077363;28;4668;-77
2023/01/17 09:50:22;;;;;;;;;;;;;;;5.70;73.96;97426.38;5056613;28;4678;-77
2023/01/17 09:52:49;;;;;;;;;;;;;;;5.69;74.00;97430.13;5064711;28;4733;-77
2023/01/17 09:55:17;;;;;;;;;;;;;;;5.72;73.65;97428.00;5061435;28;4145;-77
2023/01/17 09:57:43;;;;;;;;;;;;;;;5.64;74.06;97427.44;5059382;28;4378;-77
2023/01/17 10:00:11;;;;;;;;;;;;;;;5.74;73.73;97426.69;5059504;28;4209;-77
2023/01/17 10:02:38;;;;;;;;;;;;;;;5.73;73.94;97418.91;5083681;28;4216;-77
2023/01/17 10:05:05;;;;;;;;;;;;;;;5.79;73.73;97432.00;5088526;28;4481;-77
2023/01/17 10:07:32;;;;;;;;;;;;;;;5.69;73.94;97421.31;5088753;28;4638;-77
2023/01/17 10:09:58;;;;;;;;;;;;;;;5.66;74.08;97419.97;5089337;28;4662;-77
2023/01/17 10:12:25;;;;;;;;;;;;;;;5.61;74.41;97411.94;5087708;28;4606;-77
2023/01/17 10:14:51;;;;;;;;;;;;;;;5.56;74.47;97417.31;5060083;28;4627;-77
2023/01/17 10:17:18;;;;;;;;;;;;;;;5.71;73.91;97413.84;5078516;28;4366;-77
2023/01/17 10:19:44;;;;;;;;;;;;;;;5.66;74.04;97413.84;5059118;28;4525;-77
2023/01/17 10:22:10;;;;;;;;;;;;;;;5.55;74.46;97405.00;5060322;28;4191;-77
2023/01/17 10:24:38;;;;;;;;;;;;;;;5.59;74.58;97411.44;5080497;28;4383;-77
2023/01/17 10:27:04;;;;;;;;;;;;;;;5.53;74.47;97409.81;5072557;28;4251;-77
2023/01/17 10:29:31;;;;;;;;;;;;;;;5.64;74.20;97407.94;5073386;28;4427;-78
2023/01/17 10:31:58;;;;;;;;;;;;;;;5.60;74.28;97405.00;5091877;28;4332;-77
2023/01/17 10:34:26;;;;;;;;;;;;;;;5.50;74.83;97398.84;5089938;28;4691;-77
2023/01/17 10:36:52;;;;;;;;;;;;;;;5.66;74.16;97401.28;5091070;28;4922;-77
2023/01/17 10:39:19;;;;;;;;;;;;;;;5.52;74.53;97407.41;5085746;28;4513;-77
2023/01/17 10:41:45;;;;;;;;;;;;;;;5.55;74.66;97398.84;5075429;28;4239;-78
2023/01/17 10:44:11;;;;;;;;;;;;;;;5.46;74.63;97403.91;5087745;28;4277;-78
2023/01/17 10:46:39;;;;;;;;;;;;;;;5.58;74.54;97406.34;5090715;28;4359;-78
2023/01/17 10:49:06;;;;;;;;;;;;;;;5.56;74.47;97400.44;5089208;28;4298;-77
2023/01/17 10:51:32;;;;;;;;;;;;;;;5.55;74.62;97399.66;5075954;28;4519;-77
2023/01/17 10:53:59;;;;;;;;;;;;;;;5.56;74.53;97397.78;5072970;28;4689;-78
2023/01/17 10:56:25;;;;;;;;;;;;;;;5.49;74.69;97400.72;5072536;28;4490;-77
2023/01/17 10:58:51;;;;;;;;;;;;;;;5.53;74.70;97392.97;5090306;28;4288;-78
2023/01/17 11:01:18;;;;;;;;;;;;;;;5.45;74.80;97397.78;5071527;28;4745;-78
2023/01/17 11:03:45;;;;;;;;;;;;;;;5.51;74.74;97400.47;5070843;28;4689;-77
2023/01/17 11:06:12;;;;;;;;;;;;;;;5.61;74.23;97392.47;5090895;28;4839;-77
2023/01/17 11:08:39;;;;;;;;;;;;;;;5.37;74.78;97400.16;5083271;28;4576;-78
2023/01/17 11:11:06;;;;;;;;;;;;;;;5.35;75.00;97388.94;5079208;28;4575;-78
2023/01/17 11:13:33;;;;;;;;;;;;;;;5.44;74.96;97387.34;5094565;28;4833;-77
2023/01/17 11:15:59;;;;;;;;;;;;;;;5.44;74.83;97387.34;5091541;28;4879;-77
2023/01/17 11:18:27;;;;;;;;;;;;;;;5.36;75.01;97386.00;5093523;28;4903;-78
2023/01/17 11:20:53;;;;;;;;;;;;;;;5.49;74.88;97386.56;5082415;28;4857;-78
2023/01/17 11:23:20;;;;;;;;;;;;;;;5.38;75.27;97386.56;5094306;28;4900;-77
2023/01/17 11:25:47;;;;;;;;;;;;;;;5.36;75.11;97386.00;5103684;28;4380;-78
2023/01/17 11:28:14;;;;;;;;;;;;;;;5.43;74.79;97391.09;5098297;28;2617;-78
2023/01/17 11:30:40;;;;;;;;;;;;;;;5.44;74.69;97392.69;5084072;28;3729;-78
2023/01/17 11:33:08;;;;;;;;;;;;;;;5.50;74.84;97380.97;5101725;28;2088;-78
2023/01/17 11:35:35;;;;;;;;;;;;;;;5.44;74.81;97384.69;5082719;28;2660;-77
2023/01/17 11:38:02;;;;;;;;;;;;;;;5.46;74.88;97379.88;5096564;28;4532;-78
2023/01/17 11:40:28;;;;;;;;;;;;;;;5.43;74.95;97378.53;5096725;28;4751;-78
2023/01/17 11:42:55;;;;;;;;;;;;;;;5.37;75.03;97368.91;5077874;28;4186;-78
2023/01/17 11:45:21;;;;;;;;;;;;;;;5.43;75.01;97367.06;5079019;28;4327;-77
2023/01/17 11:47:48;;;;;;;;;;;;;;;5.46;74.85;97369.22;5078841;28;4491;-78
2023/01/17 11:50:14;;;;;;;;;;;;;;;5.38;75.12;97357.19;5097229;28;4598;-77
2023/01/17 11:52:41;;;;;;;;;;;;;;;5.35;75.10;97363.03;5085704;28;4300;-78
2023/01/17 11:55:12;;;;;;;;;;;;;;;5.36;75.05;97366.53;5094801;28;4313;-78
2023/01/17 11:57:39;;;;;;;;;;;;;;;5.40;74.99;97362.25;5078802;28;4490;-77
2023/01/17 12:00:06;;;;;;;;;;;;;;;5.34;75.21;97369.44;5081224;28;4572;-78
2023/01/17 12:02:32;;;;;;;;;;;;;;;5.38;75.04;97370.53;5078675;28;4353;-78
2023/01/17 12:04:59;;;;;;;;;;;;;;;5.28;75.36;97367.03;5086106;28;4399;-78
2023/01/17 12:07:26;;;;;;;;;;;;;;;5.44;74.80;97358.81;5079712;28;4785;-78
2023/01/17 12:09:52;;;;;;;;;;;;;;;5.37;74.93;97352.13;5094708;28;4445;-78
2023/01/17 12:15:02;;;;;;;;;;;;;;;5.35;75.12;97348.91;5079425;28;4667;-78
2023/01/17 12:17:29;;;;;;;;;;;;;;;5.26;75.46;97340.59;5096121;28;4343;-78
2023/01/17 12:19:59;;;;;;;;;;;;;;;5.26;75.40;97340.59;5077406;28;4608;-78
2023/01/17 12:22:26;;;;;;;;;;;;;;;5.29;75.21;97339.28;5094679;28;4326;-78
2023/01/17 12:24:53;;;;;;;;;;;;;;;5.22;75.40;97335.00;5081319;28;4527;-78
2023/01/17 12:27:21;;;;;;;;;;;;;;;5.33;75.02;97332.38;5094593;28;4334;-78
2023/01/17 12:29:48;;;;;;;;;;;;;;;5.26;75.42;97324.59;5096117;28;4425;-78
2023/01/17 12:32:14;;;;;;;;;;;;;;;5.29;75.10;97329.41;5095170;28;4318;-78
2023/01/17 12:34:41;;;;;;;;;;;;;;;5.31;75.19;97323.81;5081043;28;4243;-78
2023/01/17 12:37:08;;;;;;;;;;;;;;;5.23;75.52;97322.44;5093047;28;4380;-78
2023/01/17 12:39:34;;;;;;;;;;;;;;;5.43;74.92;97327.03;5093015;28;4370;-78
2023/01/17 12:42:00;;;;;;;;;;;;;;;5.23;75.31;97322.44;5092439;28;4296;-78
2023/01/17 12:44:27;;;;;;;;;;;;;;;5.22;75.49;97323.53;5080625;28;4227;-78
2023/01/17 12:46:54;;;;;;;;;;;;;;;5.27;75.43;97328.09;5078745;28;4416;-78
2023/01/17 12:49:21;;;;;;;;;;;;;;;5.21;75.43;97322.72;5094431;28;4309;-78
2023/01/17 12:51:49;;;;;;;;;;;;;;;5.16;75.60;97322.72;5092871;28;4270;-77
2023/01/17 12:54:16;;;;;;;;;;;;;;;5.22;75.43;97319.00;5093703;28;4210;-78
2023/01/17 12:56:42;;;;;;;;;;;;;;;5.20;75.55;97318.44;5092236;28;4120;-78
2023/01/17 12:59:09;;;;;;;;;;;;;;;5.17;75.57;97310.97;5093619;28;4249;-78
2023/01/17 13:01:38;;;;;;;;;;;;;;;5.19;75.50;97308.84;5078580;28;4667;-78
2023/01/17 13:04:06;;;;;;;;;;;;;;;5.13;75.93;97309.91;5078602;28;4429;-78
2023/01/17 13:06:34;;;;;;;;;;;;;;;5.17;75.68;97308.28;5079058;28;4449;-78
2023/01/17 13:09:01;;;;;;;;;;;;;;;5.16;75.72;97308.56;5093844;28;4240;-78
2023/01/17 13:11:28;;;;;;;;;;;;;;;5.18;75.50;97307.25;5090428;28;4291;-77
2023/01/17 13:13:56;;;;;;;;;;;;;;;5.12;75.78;97307.50;5077776;28;4323;-78
2023/01/17 13:16:23;;;;;;;;;;;;;;;5.14;75.79;97305.34;5092441;28;4307;-78
2023/01/17 13:18:49;;;;;;;;;;;;;;;5.09;75.95;97305.34;5082139;28;4389;-78
2023/01/17 13:21:16;;;;;;;;;;;;;;;5.10;75.91;97307.75;5077856;28;4093;-78
2023/01/17 13:23:42;;;;;;;;;;;;;;;5.08;76.10;97303.75;5083578;28;4394;-78
2023/01/17 13:26:09;;;;;;;;;;;;;;;5.15;75.73;97297.09;5093412;28;4457;-78
2023/01/17 13:28:37;;;;;;;;;;;;;;;5.11;75.85;97297.88;5078821;28;4332;-78
2023/01/17 13:31:05;;;;;;;;;;;;;;;5.06;75.88;97296.03;5077810;28;4320;-78
2023/01/17 13:33:32;;;;;;;;;;;;;;;5.09;75.79;97305.34;5095183;28;4223;-78
2023/01/17 13:35:59;;;;;;;;;;;;;;;5.09;75.95;97298.16;5076307;28;4213;-78
2023/01/17 13:38:25;;;;;;;;;;;;;;;5.04;76.19;97305.34;5092343;28;4215;-78
2023/01/17 13:40:52;;;;;;;;;;;;;;;5.07;76.04;97299.47;5081032;28;4140;-77
2023/01/17 13:43:18;;;;;;;;;;;;;;;5.09;75.74;97302.66;5095754;28;4187;-78
2023/01/17 13:45:45;;;;;;;;;;;;;;;5.05;76.19;97293.59;5078926;28;4228;-78
2023/01/17 13:48:11;;;;;;;;;;;;;;;5.08;75.83;97301.06;5093137;28;4219;-78
2023/01/17 13:50:38;;;;;;;;;;;;;;;5.12;75.57;97288.84;5093349;28;4129;-78
2023/01/17 13:53:04;;;;;;;;;;;;;;;5.05;75.83;97301.59;5081569;28;4238;-78
2023/01/17 13:55:31;;;;;;;;;;;;;;;5.02;76.18;97281.59;5077153;28;4219;-78
2023/01/17 13:57:57;;;;;;;;;;;;;;;5.00;76.09;97279.19;5092784;28;4220;-78
2023/01/17 14:00:23;;;;;;;;;;;;;;;5.00;76.17;97284.53;5076936;28;4309;-78
2023/01/17 14:02:50;;;;;;;;;;;;;;;4.99;76.11;97279.44;5075399;28;4192;-78
2023/01/17 14:05:20;;;;;;;;;;;;;;;5.00;76.08;97284.53;5094640;28;4286;-78
2023/01/17 14:07:47;;;;;;;;;;;;;;;5.03;76.03;97277.06;5090904;28;4314;-78
2023/01/17 14:10:14;;;;;;;;;;;;;;;4.99;76.08;97274.91;5083275;28;4298;-78
2023/01/17 14:12:41;;;;;;;;;;;;;;;5.00;76.34;97276.53;5079990;28;4236;-78
2023/01/17 14:15:07;;;;;;;;;;;;;;;4.98;76.14;97270.66;5093609;28;4538;-78
2023/01/17 14:17:34;;;;;;;;;;;;;;;4.98;76.12;97273.31;5092552;28;4195;-77
2023/01/17 14:20:01;;;;;;;;;;;;;;;4.98;76.24;97267.97;5078360;28;4182;-78
2023/01/17 14:22:27;;;;;;;;;;;;;;;4.97;76.21;97266.38;5089573;28;4725;-78
2023/01/17 14:24:53;;;;;;;;;;;;;;;4.98;76.14;97275.19;5094984;28;4975;-78
2023/01/17 14:27:20;;;;;;;;;;;;;;;5.03;75.98;97269.88;5092401;28;4354;-78
2023/01/17 14:29:49;;;;;;;;;;;;;;;5.01;76.01;97267.47;5094004;28;4285;-78